Time;durP1;ratioP1;P1;durP2;ratioP2;P2;SDS_P1;SDS_P2;PMS_P1;PMS_P2;Temp;Humidity;BMP_temperature;BMP_pressure;BME280_temperature;BME280_humidity;BME280_pressure;Samples;Min_cycle;Max_cycle;Signal;HPM_P1;HPM_P2
2022/12/27 00:01:19;;;;;;;;;;;;;;;26.24;48.47;97550.38;599720;236;66898;-72
2022/12/27 00:03:47;;;;;;;;;;;;;;;26.23;48.02;97554.17;599766;236;62755;-71
2022/12/27 00:06:16;;;;;;;;;;;;;;;26.21;48.07;97549.07;598973;236;65366;-71
2022/12/27 00:08:44;;;;;;;;;;;;;;;26.20;47.89;97552.87;599126;236;64678;-72
2022/12/27 00:11:13;;;;;;;;;;;;;;;26.20;47.55;97560.16;598580;236;63030;-72
2022/12/27 00:13:41;;;;;;;;;;;;;;;26.20;48.48;97549.38;599014;236;67122;-71
2022/12/27 00:16:10;;;;;;;;;;;;;;;26.19;48.08;97548.59;599631;236;66846;-72
2022/12/27 00:18:38;;;;;;;;;;;;;;;26.18;48.14;97560.44;598951;235;65186;-72
2022/12/27 00:21:06;;;;;;;;;;;;;;;26.18;47.40;97565.03;599593;236;67079;-72
2022/12/27 00:23:35;;;;;;;;;;;;;;;26.16;47.66;97567.20;599373;236;66998;-72
2022/12/27 00:26:04;;;;;;;;;;;;;;;26.15;47.90;97563.71;599207;236;62960;-71
2022/12/27 00:28:32;;;;;;;;;;;;;;;26.13;48.50;97571.28;599069;236;64940;-72
2022/12/27 00:30:59;;;;;;;;;;;;;;;26.12;48.79;97572.38;599261;236;65043;-72
2022/12/27 00:33:29;;;;;;;;;;;;;;;26.10;48.34;97569.97;599194;236;65755;-72
2022/12/27 00:35:57;;;;;;;;;;;;;;;26.12;49.08;97572.38;599226;236;65005;-72
2022/12/27 00:38:25;;;;;;;;;;;;;;;26.10;48.67;97566.47;598734;236;66866;-72
2022/12/27 00:40:52;;;;;;;;;;;;;;;26.09;49.62;97570.27;599009;236;65084;-73
2022/12/27 00:43:20;;;;;;;;;;;;;;;26.08;49.24;97574.86;599052;236;67048;-72
2022/12/27 00:45:47;;;;;;;;;;;;;;;26.06;49.18;97566.27;599119;236;66608;-72
2022/12/27 00:48:15;;;;;;;;;;;;;;;26.05;49.28;97561.95;598574;235;65046;-72
2022/12/27 00:50:43;;;;;;;;;;;;;;;26.05;48.93;97561.16;599179;236;64496;-72
2022/12/27 00:53:11;;;;;;;;;;;;;;;26.04;49.91;97563.05;598320;236;64991;-72
2022/12/27 00:55:40;;;;;;;;;;;;;;;26.04;48.31;97565.75;598702;236;62942;-72
2022/12/27 00:58:07;;;;;;;;;;;;;;;26.04;50.40;97564.95;599549;236;64812;-72
2022/12/27 01:00:35;;;;;;;;;;;;;;;26.02;48.60;97564.44;598687;236;66886;-72
2022/12/27 01:03:03;;;;;;;;;;;;;;;26.01;48.31;97566.33;598900;236;65102;-72
2022/12/27 01:05:30;;;;;;;;;;;;;;;26.01;49.23;97562.84;598674;236;64965;-72
2022/12/27 01:07:58;;;;;;;;;;;;;;;26.00;49.16;97564.74;598781;236;64607;-72
2022/12/27 01:10:25;;;;;;;;;;;;;;;25.98;48.20;97568.81;599263;236;64945;-72
2022/12/27 01:12:53;;;;;;;;;;;;;;;25.98;49.47;97563.42;599147;236;66800;-72
2022/12/27 01:15:21;;;;;;;;;;;;;;;25.97;48.14;97561.80;599023;236;66946;-72
2022/12/27 01:17:48;;;;;;;;;;;;;;;25.96;48.22;97552.14;598841;236;64909;-72
2022/12/27 01:20:15;;;;;;;;;;;;;;;25.94;48.78;97557.00;599057;235;67429;-72
2022/12/27 01:22:43;;;;;;;;;;;;;;;25.95;49.81;97558.62;598535;236;66897;-72
2022/12/27 01:25:10;;;;;;;;;;;;;;;25.93;49.46;97556.21;598769;236;65272;-72
2022/12/27 01:27:38;;;;;;;;;;;;;;;25.92;50.24;97551.92;598718;236;67093;-72
2022/12/27 01:30:06;;;;;;;;;;;;;;;25.90;49.06;97538.73;598865;236;66911;-72
2022/12/27 01:32:34;;;;;;;;;;;;;;;25.90;48.70;97541.44;599460;236;62502;-72
2022/12/27 01:35:01;;;;;;;;;;;;;;;25.88;47.77;97546.30;599068;236;66976;-72
2022/12/27 01:37:29;;;;;;;;;;;;;;;25.89;49.03;97544.41;598805;236;66901;-72
2022/12/27 01:39:57;;;;;;;;;;;;;;;25.88;48.06;97538.22;598675;236;65323;-72
2022/12/27 01:45:11;;;;;;;;;;;;;;;25.86;48.21;97545.81;599425;236;67069;-71
2022/12/27 01:47:41;;;;;;;;;;;;;;;25.83;48.89;97535.59;598572;236;64900;-71
2022/12/27 01:50:16;;;;;;;;;;;;;;;25.84;48.90;97542.59;599345;236;67303;-72
2022/12/27 01:53:03;;;;;;;;;;;;;;;25.83;48.59;97540.98;598991;236;64836;-71
2022/12/27 01:55:50;;;;;;;;;;;;;;;25.82;48.47;97542.05;599403;236;64896;-73
2022/12/27 01:58:28;;;;;;;;;;;;;;;25.82;49.45;97541.26;598836;236;64876;-72
2022/12/27 02:00:57;;;;;;;;;;;;;;;25.80;49.31;97530.77;598795;236;66668;-73
2022/12/27 02:03:25;;;;;;;;;;;;;;;25.79;49.15;97537.25;598986;236;65103;-73
2022/12/27 02:05:54;;;;;;;;;;;;;;;25.79;48.31;97533.77;598892;236;67144;-73
2022/12/27 02:08:28;;;;;;;;;;;;;;;25.77;48.57;97536.73;598865;236;67519;-73
2022/12/27 02:10:57;;;;;;;;;;;;;;;25.77;48.47;97541.31;599151;236;64886;-73
2022/12/27 02:13:24;;;;;;;;;;;;;;;25.76;49.41;97534.34;598733;236;64943;-73
2022/12/27 02:15:52;;;;;;;;;;;;;;;25.76;49.10;97539.73;599290;236;66895;-73
2022/12/27 02:18:19;;;;;;;;;;;;;;;25.74;48.21;97531.92;598895;236;64919;-73
2022/12/27 02:20:54;;;;;;;;;;;;;;;25.73;48.61;97535.72;599305;236;67078;-73
2022/12/27 02:26:30;;;;;;;;;;;;;;;25.72;48.39;97525.23;598746;236;66174;-72
2022/12/27 02:29:16;;;;;;;;;;;;;;;25.70;48.33;97530.92;598568;236;64603;-72
2022/12/27 02:31:48;;;;;;;;;;;;;;;25.69;50.12;97529.30;599164;236;64821;-72
2022/12/27 02:34:17;;;;;;;;;;;;;;;25.69;50.47;97531.99;599203;236;62959;-72
2022/12/27 02:36:45;;;;;;;;;;;;;;;25.68;49.38;97527.70;598585;236;65189;-72
2022/12/27 02:39:15;;;;;;;;;;;;;;;25.67;50.04;97526.09;598701;236;67266;-72
2022/12/27 02:53:03;;;;;;;;;;;;;;;25.61;48.78;97527.25;599624;236;64939;-71
2022/12/27 02:58:43;;;;;;;;;;;;;;;25.59;49.49;97524.86;599853;236;62855;-71
2022/12/27 03:04:05;;;;;;;;;;;;;;;25.57;50.03;97527.03;599902;236;64997;-71
2022/12/27 03:06:40;;;;;;;;;;;;;;;25.56;50.03;97535.38;599283;236;62978;-71
2022/12/27 03:17:53;;;;;;;;;;;;;;;25.51;49.26;97538.13;599418;236;64949;-70
2022/12/27 03:25:54;;;;;;;;;;;;;;;25.48;49.74;97526.05;599440;236;64668;-70
2022/12/27 03:33:46;;;;;;;;;;;;;;;25.44;50.52;97533.91;599690;235;66698;-70
2022/12/27 03:39:18;;;;;;;;;;;;;;;25.44;52.18;97543.88;599530;236;63083;-71
2022/12/27 03:44:35;;;;;;;;;;;;;;;25.41;50.06;97544.45;599801;236;64893;-73
2022/12/27 03:47:07;;;;;;;;;;;;;;;25.40;50.25;97537.45;599386;236;62977;-73
2022/12/27 03:49:42;;;;;;;;;;;;;;;25.38;53.19;97535.06;598504;236;64623;-73
2022/12/27 03:52:11;;;;;;;;;;;;;;;25.37;51.58;97536.16;600627;236;67111;-72
2022/12/27 03:54:40;;;;;;;;;;;;;;;25.37;51.42;97535.34;600146;236;65335;-72
2022/12/27 03:57:10;;;;;;;;;;;;;;;25.35;50.65;97524.87;600358;236;67469;-73
2022/12/27 03:59:38;;;;;;;;;;;;;;;25.35;51.97;97524.87;600553;236;67084;-72
2022/12/27 04:02:05;;;;;;;;;;;;;;;25.35;50.61;97529.47;600662;236;65091;-72
2022/12/27 04:04:33;;;;;;;;;;;;;;;25.34;51.71;97531.33;600474;236;67125;-72
2022/12/27 04:07:00;;;;;;;;;;;;;;;25.33;51.87;97527.05;600693;236;66899;-72
2022/12/27 04:37:05;;;;;;;;;;;;;;;25.21;53.12;97529.36;600635;236;67143;-72
2022/12/27 04:39:32;;;;;;;;;;;;;;;25.21;52.08;97540.11;600548;236;66551;-72
2022/12/27 04:55:56;;;;;;;;;;;;;;;25.14;50.46;97542.30;600580;236;66900;-72
2022/12/27 04:58:25;;;;;;;;;;;;;;;25.12;51.18;97539.88;600362;236;65228;-72
2022/12/27 05:03:39;;;;;;;;;;;;;;;25.12;51.51;97544.47;600340;236;64884;-72
2022/12/27 05:06:07;;;;;;;;;;;;;;;25.09;50.68;97537.77;600378;236;62710;-72
2022/12/27 05:14:09;;;;;;;;;;;;;;;25.07;51.07;97531.06;600636;236;64986;-72
2022/12/27 05:16:38;;;;;;;;;;;;;;;25.05;52.03;97528.68;600449;236;68081;-72
2022/12/27 05:19:07;;;;;;;;;;;;;;;25.06;52.63;97534.86;600507;236;65646;-72
2022/12/27 05:21:36;;;;;;;;;;;;;;;25.05;52.02;97535.95;600606;236;62780;-72
2022/12/27 05:26:49;;;;;;;;;;;;;;;25.03;52.90;97531.64;600556;236;66899;-72
2022/12/27 05:29:17;;;;;;;;;;;;;;;25.02;52.39;97532.73;600656;236;65067;-72
2022/12/27 05:31:44;;;;;;;;;;;;;;;25.02;52.20;97527.36;600389;236;67201;-72
2022/12/27 05:34:12;;;;;;;;;;;;;;;25.00;52.30;97529.52;600497;236;66915;-72
2022/12/27 05:36:39;;;;;;;;;;;;;;;25.00;51.96;97531.42;600636;236;65198;-72
2022/12/27 05:39:07;;;;;;;;;;;;;;;24.98;50.72;97526.31;600626;236;67121;-72
2022/12/27 05:41:34;;;;;;;;;;;;;;;24.97;50.61;97532.78;600633;236;67022;-72
2022/12/27 05:44:02;;;;;;;;;;;;;;;24.97;53.14;97530.09;600656;236;64930;-72
2022/12/27 05:46:29;;;;;;;;;;;;;;;24.96;53.09;97531.19;600401;236;67015;-70
2022/12/27 05:48:57;;;;;;;;;;;;;;;24.96;51.23;97527.67;600666;235;66805;-70
2022/12/27 05:51:24;;;;;;;;;;;;;;;24.96;51.86;97535.75;600785;236;64934;-70
2022/12/27 05:53:51;;;;;;;;;;;;;;;24.95;52.11;97531.47;600738;236;64866;-70
2022/12/27 05:56:20;;;;;;;;;;;;;;;24.94;51.58;97541.42;600760;236;64645;-70
2022/12/27 05:58:48;;;;;;;;;;;;;;;24.92;52.32;97543.59;600758;236;64932;-71
2022/12/27 06:01:16;;;;;;;;;;;;;;;24.91;52.64;97544.69;600749;236;67067;-70
2022/12/27 06:03:44;;;;;;;;;;;;;;;24.91;52.84;97535.79;600816;236;67350;-70
2022/12/27 06:06:12;;;;;;;;;;;;;;;24.90;53.83;97540.38;600780;236;63676;-70
2022/12/27 06:08:40;;;;;;;;;;;;;;;24.89;51.44;97546.05;600744;236;66855;-70
2022/12/27 06:11:12;;;;;;;;;;;;;;;24.88;51.92;97539.87;600794;236;64962;-70
2022/12/27 06:13:41;;;;;;;;;;;;;;;24.86;50.65;97539.34;600760;236;62442;-70
2022/12/27 06:16:11;;;;;;;;;;;;;;;24.87;52.68;97535.56;600822;236;67183;-70
2022/12/27 06:18:39;;;;;;;;;;;;;;;24.86;53.46;97530.48;600813;236;64857;-70
2022/12/27 06:21:08;;;;;;;;;;;;;;;24.85;53.17;97534.25;600779;236;64902;-70
2022/12/27 06:23:36;;;;;;;;;;;;;;;24.84;51.93;97533.45;600780;236;67018;-71
2022/12/27 06:26:06;;;;;;;;;;;;;;;24.83;53.07;97537.23;600766;236;66886;-72
2022/12/27 06:28:33;;;;;;;;;;;;;;;24.82;53.17;97535.61;600744;236;65057;-70
2022/12/27 06:31:11;;;;;;;;;;;;;;;24.81;54.13;97542.08;600829;236;67319;-72
2022/12/27 06:33:39;;;;;;;;;;;;;;;24.81;53.77;97542.08;600765;236;64405;-70
2022/12/27 06:36:10;;;;;;;;;;;;;;;24.79;53.44;97539.66;600700;236;47478;-72
2022/12/27 06:38:38;;;;;;;;;;;;;;;24.79;52.41;97536.18;600773;236;67131;-73
2022/12/27 06:41:07;;;;;;;;;;;;;;;24.77;51.80;97547.23;600780;236;67678;-73
2022/12/27 06:43:34;;;;;;;;;;;;;;;24.76;50.69;97537.55;600833;236;65197;-73
2022/12/27 06:46:03;;;;;;;;;;;;;;;24.76;53.24;97534.86;600774;236;67151;-73
2022/12/27 06:48:31;;;;;;;;;;;;;;;24.76;53.42;97539.44;600386;236;65771;-73
2022/12/27 06:50:58;;;;;;;;;;;;;;;24.74;53.67;97537.02;599102;236;62761;-73
2022/12/27 06:53:28;;;;;;;;;;;;;;;24.73;53.83;97538.12;598662;236;67494;-73
2022/12/27 06:55:55;;;;;;;;;;;;;;;24.72;51.42;97536.52;598971;236;66925;-73
2022/12/27 06:58:23;;;;;;;;;;;;;;;24.72;51.60;97538.41;598883;236;65348;-74
2022/12/27 07:00:50;;;;;;;;;;;;;;;24.71;54.23;97534.11;596198;236;67412;-76
2022/12/27 07:03:17;;;;;;;;;;;;;;;24.70;51.21;97537.89;592163;238;66812;-76
2022/12/27 07:05:45;;;;;;;;;;;;;;;24.72;53.42;97539.20;592375;238;64860;-73
2022/12/27 07:08:12;;;;;;;;;;;;;;;24.71;51.09;97540.28;592104;237;67090;-74
2022/12/27 07:10:40;;;;;;;;;;;;;;;24.71;52.09;97531.41;593027;238;66682;-70
2022/12/27 07:13:07;;;;;;;;;;;;;;;24.70;52.45;97525.25;592262;238;64934;-73
2022/12/27 07:15:35;;;;;;;;;;;;;;;24.70;51.44;97525.25;591816;238;67186;-72
2022/12/27 07:18:02;;;;;;;;;;;;;;;24.71;51.65;97528.73;595424;238;67223;-72
2022/12/27 07:20:30;;;;;;;;;;;;;;;24.72;53.46;97528.46;596526;237;63650;-72
2022/12/27 07:22:58;;;;;;;;;;;;;;;24.73;48.52;97529.25;596546;238;67116;-74
2022/12/27 07:25:26;;;;;;;;;;;;;;;24.74;53.63;97528.16;596730;237;67172;-78
2022/12/27 07:27:53;;;;;;;;;;;;;;;24.74;53.32;97528.16;596492;238;64936;-72
2022/12/27 07:30:23;;;;;;;;;;;;;;;24.70;45.72;97527.93;596443;237;46644;-76
2022/12/27 07:32:50;;;;;;;;;;;;;;;24.73;52.36;97526.56;596557;238;64560;-69
2022/12/27 07:35:18;;;;;;;;;;;;;;;24.72;51.59;97528.46;596510;238;62810;-69
2022/12/27 07:37:46;;;;;;;;;;;;;;;24.72;51.74;97527.66;596543;237;66457;-68
2022/12/27 07:40:15;;;;;;;;;;;;;;;24.71;51.74;97531.41;596358;237;66763;-74
2022/12/27 07:42:42;;;;;;;;;;;;;;;24.71;51.72;97534.11;596463;237;65022;-74
2022/12/27 07:45:10;;;;;;;;;;;;;;;24.69;52.31;97529.03;596466;238;67131;-73
2022/12/27 07:47:37;;;;;;;;;;;;;;;24.69;52.38;97531.72;596511;237;64475;-70
2022/12/27 07:50:05;;;;;;;;;;;;;;;24.68;52.42;97538.16;595219;238;62726;-72
2022/12/27 07:52:32;;;;;;;;;;;;;;;24.67;52.95;97535.77;595211;238;64577;-77
2022/12/27 07:55:00;;;;;;;;;;;;;;;24.66;51.57;97529.56;595251;238;64435;-71
2022/12/27 07:57:28;;;;;;;;;;;;;;;24.67;51.53;97530.39;595185;238;64771;-72
2022/12/27 07:59:56;;;;;;;;;;;;;;;24.64;46.89;97531.76;595253;238;64840;-73
2022/12/27 08:02:23;;;;;;;;;;;;;;;24.71;51.89;97528.73;595001;238;64818;-72
2022/12/27 08:04:50;;;;;;;;;;;;;;;24.73;43.95;97521.19;595191;238;65422;-72
2022/12/27 08:07:19;;;;;;;;;;;;;;;24.73;51.52;97521.19;595158;238;67122;-75
2022/12/27 08:09:48;;;;;;;;;;;;;;;24.73;51.55;97526.56;595137;238;66913;-73
2022/12/27 08:12:15;;;;;;;;;;;;;;;24.72;51.23;97523.08;595164;238;62855;-72
2022/12/27 08:14:43;;;;;;;;;;;;;;;24.73;50.01;97526.56;595264;238;67614;-74
2022/12/27 08:17:13;;;;;;;;;;;;;;;24.73;50.70;97513.92;595244;238;66836;-71
2022/12/27 08:19:40;;;;;;;;;;;;;;;24.75;50.56;97522.52;595114;236;64964;-74
2022/12/27 08:22:09;;;;;;;;;;;;;;;24.76;50.29;97524.11;595193;238;67216;-74
2022/12/27 08:24:39;;;;;;;;;;;;;;;24.78;49.54;97531.90;595261;238;64379;-73
2022/12/27 08:27:07;;;;;;;;;;;;;;;24.79;50.49;97533.49;595166;238;63921;-74
2022/12/27 08:29:34;;;;;;;;;;;;;;;24.79;50.37;97525.43;594744;238;67056;-73
2022/12/27 08:32:02;;;;;;;;;;;;;;;24.81;51.33;97544.77;594963;238;67197;-74
2022/12/27 08:34:29;;;;;;;;;;;;;;;24.83;50.46;97539.09;595077;238;62750;-73
2022/12/27 08:36:59;;;;;;;;;;;;;;;24.83;52.58;97534.55;595259;237;48341;-73
2022/12/27 08:39:28;;;;;;;;;;;;;;;24.84;51.96;97528.08;595223;238;66956;-71
2022/12/27 08:41:56;;;;;;;;;;;;;;;24.86;51.39;97547.42;595241;238;63053;-75
2022/12/27 08:44:26;;;;;;;;;;;;;;;24.87;51.86;97534.77;595156;238;64874;-74
2022/12/27 08:46:53;;;;;;;;;;;;;;;24.89;50.91;97533.41;595171;238;66675;-74
2022/12/27 08:49:21;;;;;;;;;;;;;;;24.91;51.10;97528.55;595120;238;63691;-75
2022/12/27 08:51:51;;;;;;;;;;;;;;;24.92;51.00;97538.20;595237;238;64234;-75
2022/12/27 08:54:18;;;;;;;;;;;;;;;24.95;51.92;97521.50;595224;238;64473;-74
2022/12/27 08:56:45;;;;;;;;;;;;;;;24.98;52.80;97520.94;595119;238;66210;-76
2022/12/27 08:59:13;;;;;;;;;;;;;;;24.98;51.06;97522.83;595221;238;67082;-71
2022/12/27 09:01:40;;;;;;;;;;;;;;;25.00;52.76;97510.70;595149;238;66660;-70
2022/12/27 09:04:08;;;;;;;;;;;;;;;25.03;52.15;97504.75;595131;238;64970;-72
2022/12/27 09:06:39;;;;;;;;;;;;;;;25.04;51.23;97494.79;594772;238;53767;-73
2022/12/27 09:09:07;;;;;;;;;;;;;;;25.07;51.64;97493.42;594982;238;66897;-71
2022/12/27 09:11:34;;;;;;;;;;;;;;;25.09;52.25;97483.19;595251;238;64883;-73
2022/12/27 09:14:03;;;;;;;;;;;;;;;25.09;52.18;97481.29;595121;238;64629;-68
2022/12/27 09:16:32;;;;;;;;;;;;;;;25.12;51.99;97491.47;595163;238;66733;-68
2022/12/27 09:19:02;;;;;;;;;;;;;;;25.13;53.39;97495.78;595243;238;63764;-69
2022/12/27 09:21:31;;;;;;;;;;;;;;;25.16;53.10;97494.44;595180;238;66832;-71
2022/12/27 09:23:58;;;;;;;;;;;;;;;25.18;52.64;97489.55;595153;238;64718;-73
2022/12/27 09:26:27;;;;;;;;;;;;;;;25.19;52.48;97480.41;595160;238;62713;-72
2022/12/27 09:28:55;;;;;;;;;;;;;;;25.20;52.42;97479.31;595326;238;66780;-72
2022/12/27 09:31:23;;;;;;;;;;;;;;;25.23;53.38;97467.98;595535;238;66715;-71
2022/12/27 09:33:51;;;;;;;;;;;;;;;25.24;52.42;97469.60;595534;238;63892;-69
2022/12/27 09:36:20;;;;;;;;;;;;;;;25.27;51.99;97473.61;595466;238;64602;-70
2022/12/27 09:38:48;;;;;;;;;;;;;;;25.28;52.27;97459.85;595546;238;63933;-72
2022/12/27 09:41:33;;;;;;;;;;;;;;;25.31;51.49;97464.66;595547;238;64952;-72
2022/12/27 09:44:04;;;;;;;;;;;;;;;25.33;51.01;97469.76;595553;238;64541;-68
2022/12/27 09:46:42;;;;;;;;;;;;;;;25.34;50.96;97458.69;595578;238;67129;-72
2022/12/27 09:49:11;;;;;;;;;;;;;;;25.36;51.73;97472.66;598820;235;62750;-71
2022/12/27 09:51:40;;;;;;;;;;;;;;;25.38;50.57;97465.11;600676;236;65550;-71
2022/12/27 09:54:12;;;;;;;;;;;;;;;25.40;50.02;97459.42;600678;236;66531;-71
2022/12/27 09:56:40;;;;;;;;;;;;;;;25.41;49.13;97475.30;600756;236;62295;-72
2022/12/27 09:59:28;;;;;;;;;;;;;;;25.44;50.11;97463.95;600646;236;67394;-70
2022/12/27 10:01:56;;;;;;;;;;;;;;;25.46;49.82;97475.23;600627;236;64567;-72
2022/12/27 10:04:23;;;;;;;;;;;;;;;25.49;50.47;97468.47;600754;236;63647;-71
2022/12/27 10:06:52;;;;;;;;;;;;;;;25.50;49.21;97470.06;600645;236;64243;-70
2022/12/27 10:09:22;;;;;;;;;;;;;;;25.53;50.89;97460.61;600747;236;64597;-69
2022/12/27 10:11:50;;;;;;;;;;;;;;;25.54;49.65;97473.79;600729;236;62754;-71
2022/12/27 10:14:19;;;;;;;;;;;;;;;25.56;49.93;97470.80;600546;236;64973;-70
2022/12/27 10:16:48;;;;;;;;;;;;;;;25.57;50.15;97467.83;600713;236;64253;-70
2022/12/27 10:19:24;;;;;;;;;;;;;;;25.58;50.44;97457.86;600677;236;64939;-70
2022/12/27 10:21:53;;;;;;;;;;;;;;;25.58;49.42;97447.89;600667;236;66834;-71
2022/12/27 10:24:22;;;;;;;;;;;;;;;25.61;51.09;97457.27;600743;236;64373;-71
2022/12/27 10:26:52;;;;;;;;;;;;;;;25.61;48.67;97451.89;600690;236;62916;-71
2022/12/27 10:29:24;;;;;;;;;;;;;;;25.63;49.97;97445.13;600738;236;66842;-70
2022/12/27 10:31:52;;;;;;;;;;;;;;;25.65;49.66;97442.16;600667;236;66720;-73
2022/12/27 10:34:23;;;;;;;;;;;;;;;25.66;48.60;97438.36;600687;236;64925;-71
2022/12/27 10:36:52;;;;;;;;;;;;;;;25.68;48.80;97433.50;600713;236;66587;-72
2022/12/27 10:39:31;;;;;;;;;;;;;;;25.69;49.34;97437.78;600746;236;66698;-73
2022/12/27 10:42:15;;;;;;;;;;;;;;;25.69;49.58;97440.47;600518;236;62782;-77
2022/12/27 10:44:43;;;;;;;;;;;;;;;25.70;50.75;97434.02;600746;236;66802;-71
2022/12/27 10:47:10;;;;;;;;;;;;;;;25.71;49.75;97429.42;600789;236;66675;-73
2022/12/27 10:49:39;;;;;;;;;;;;;;;25.71;47.46;97432.91;597047;236;64896;-74
2022/12/27 10:52:17;;;;;;;;;;;;;;;25.73;49.62;97425.35;595596;238;66984;-73
2022/12/27 10:54:55;;;;;;;;;;;;;;;25.74;50.36;97426.94;595624;238;64351;-74
2022/12/27 10:57:30;;;;;;;;;;;;;;;25.74;50.79;97432.33;595565;238;65242;-70
2022/12/27 11:00:15;;;;;;;;;;;;;;;25.75;50.32;97430.42;595555;238;66679;-74
2022/12/27 11:02:56;;;;;;;;;;;;;;;25.77;49.26;97436.33;595532;238;68102;-74
2022/12/27 11:05:26;;;;;;;;;;;;;;;25.77;50.59;97439.81;595638;238;65359;-68
2022/12/27 11:07:53;;;;;;;;;;;;;;;25.76;50.77;97427.45;595545;235;66930;-71
2022/12/27 11:10:22;;;;;;;;;;;;;;;25.77;49.71;97449.78;595443;238;66883;-71
2022/12/27 11:13:01;;;;;;;;;;;;;;;25.75;50.21;97441.98;595530;238;63107;-74
2022/12/27 11:15:30;;;;;;;;;;;;;;;25.76;50.14;97423.97;595376;238;65578;-73
2022/12/27 11:17:59;;;;;;;;;;;;;;;25.76;51.09;97438.22;595480;238;64563;-69
2022/12/27 11:20:28;;;;;;;;;;;;;;;25.76;50.54;97427.45;595665;238;62983;-71
2022/12/27 11:23:03;;;;;;;;;;;;;;;25.75;49.82;97431.22;595612;238;66580;-71
2022/12/27 11:25:32;;;;;;;;;;;;;;;25.76;48.50;97430.15;595446;238;66774;-69
2022/12/27 11:28:03;;;;;;;;;;;;;;;25.77;49.11;97433.64;595576;238;65249;-69
2022/12/27 11:30:32;;;;;;;;;;;;;;;25.78;49.91;97419.89;595584;238;64293;-71
2022/12/27 11:33:07;;;;;;;;;;;;;;;25.78;48.87;97422.59;595552;238;64716;-68
2022/12/27 11:35:36;;;;;;;;;;;;;;;25.78;49.21;97417.20;595691;236;62754;-71
2022/12/27 11:38:03;;;;;;;;;;;;;;;25.79;47.85;97424.17;595720;236;64410;-72
2022/12/27 11:40:33;;;;;;;;;;;;;;;25.77;50.30;97414.80;595530;238;64657;-71
2022/12/27 11:43:02;;;;;;;;;;;;;;;25.78;45.44;97406.44;594614;238;62781;-74
2022/12/27 11:45:31;;;;;;;;;;;;;;;25.80;47.87;97408.81;594877;236;64218;-70
2022/12/27 11:48:09;;;;;;;;;;;;;;;25.78;48.49;97409.13;596099;235;64079;-73
2022/12/27 11:50:38;;;;;;;;;;;;;;;25.78;49.87;97417.20;600521;236;62900;-68
2022/12/27 11:53:07;;;;;;;;;;;;;;;25.78;43.72;97411.82;600582;236;64552;-74
2022/12/27 11:55:39;;;;;;;;;;;;;;;25.93;42.89;97426.16;600719;236;64239;-72
2022/12/27 11:58:23;;;;;;;;;;;;;;;25.95;46.03;97423.98;599787;236;65953;-71
2022/12/27 12:00:53;;;;;;;;;;;;;;;25.94;46.01;97422.36;599474;236;64354;-67
2022/12/27 12:03:25;;;;;;;;;;;;;;;25.94;47.02;97443.91;600801;236;66853;-69
2022/12/27 12:05:54;;;;;;;;;;;;;;;25.93;46.87;97448.50;600650;236;63652;-69
2022/12/27 12:08:38;;;;;;;;;;;;;;;25.92;47.88;97438.83;600625;236;66574;-69
2022/12/27 12:11:16;;;;;;;;;;;;;;;25.90;46.52;97449.09;600687;236;64302;-70
2022/12/27 12:14:01;;;;;;;;;;;;;;;25.88;47.98;97449.37;600675;236;64874;-68
2022/12/27 12:16:39;;;;;;;;;;;;;;;25.89;42.36;97439.39;595969;236;67723;-68
2022/12/27 12:19:07;;;;;;;;;;;;;;;25.90;45.47;97449.09;592815;239;64841;-68
2022/12/27 12:21:49;;;;;;;;;;;;;;;25.87;47.02;97455.86;594646;236;62997;-69
2022/12/27 12:24:24;;;;;;;;;;;;;;;25.86;47.15;97451.58;593917;238;66785;-69
2022/12/27 12:26:57;;;;;;;;;;;;;;;25.83;47.44;97449.44;594171;239;66697;-75
2022/12/27 12:29:42;;;;;;;;;;;;;;;25.83;46.91;97457.52;594124;239;65110;-73
2022/12/27 12:32:27;;;;;;;;;;;;;;;25.82;48.84;97474.74;594142;239;66812;-72
2022/12/27 12:34:59;;;;;;;;;;;;;;;25.81;47.55;97486.61;593877;239;64576;-72
2022/12/27 12:37:37;;;;;;;;;;;;;;;25.82;47.57;97482.81;594139;239;65339;-72
2022/12/27 12:40:16;;;;;;;;;;;;;;;25.82;46.45;97485.52;594224;239;67062;-74
2022/12/27 12:42:51;;;;;;;;;;;;;;;25.82;47.27;97500.87;596437;236;66659;-72
2022/12/27 12:45:20;;;;;;;;;;;;;;;25.83;46.41;97518.61;596920;236;62778;-74
2022/12/27 12:47:49;;;;;;;;;;;;;;;25.82;47.13;97525.10;593944;237;65079;-73
2022/12/27 12:50:30;;;;;;;;;;;;;;;25.81;48.32;97535.08;592068;238;65595;-73
2022/12/27 12:53:11;;;;;;;;;;;;;;;25.81;46.34;97540.45;592604;238;62829;-77
2022/12/27 12:55:56;;;;;;;;;;;;;;;25.82;47.77;97546.64;592374;238;64517;-74
2022/12/27 12:58:37;;;;;;;;;;;;;;;25.80;47.93;97549.61;591751;238;67139;-78
2022/12/27 13:01:23;;;;;;;;;;;;;;;25.81;46.90;97553.92;592829;238;65070;-75
2022/12/27 13:03:56;;;;;;;;;;;;;;;25.82;47.61;97570.88;592675;238;67252;-73
2022/12/27 13:06:42;;;;;;;;;;;;;;;25.80;47.47;97563.07;592318;238;64866;-74
2022/12/27 13:09:30;;;;;;;;;;;;;;;25.81;48.17;97571.94;592433;238;65112;-79
2022/12/27 13:11:59;;;;;;;;;;;;;;;25.81;48.77;97578.16;592354;238;64937;-77
2022/12/27 13:14:44;;;;;;;;;;;;;;;25.81;48.39;97588.92;591785;238;64818;-75
2022/12/27 13:17:22;;;;;;;;;;;;;;;25.81;48.45;97591.61;592371;238;63135;-75
2022/12/27 13:19:52;;;;;;;;;;;;;;;25.82;47.14;97598.59;592310;238;64825;-75
2022/12/27 13:22:27;;;;;;;;;;;;;;;25.82;47.42;97592.41;591540;238;64787;-75
2022/12/27 13:24:56;;;;;;;;;;;;;;;25.83;47.72;97591.31;592408;238;65124;-77
2022/12/27 13:27:26;;;;;;;;;;;;;;;25.82;47.45;97598.59;592432;238;67064;-74
2022/12/27 13:29:55;;;;;;;;;;;;;;;25.83;48.43;97602.91;592740;238;66696;-75
2022/12/27 13:32:30;;;;;;;;;;;;;;;25.83;48.28;97602.08;592029;238;62772;-75
2022/12/27 13:35:09;;;;;;;;;;;;;;;25.84;48.17;97595.66;592316;238;65773;-76
2022/12/27 13:37:41;;;;;;;;;;;;;;;25.84;47.59;97603.73;592157;238;65148;-77
2022/12/27 13:40:16;;;;;;;;;;;;;;;25.84;47.80;97607.22;592697;238;64875;-76
2022/12/27 13:42:45;;;;;;;;;;;;;;;25.84;47.87;97612.61;592261;238;65121;-77
2022/12/27 13:45:16;;;;;;;;;;;;;;;25.85;47.97;97603.42;592707;238;64743;-75
2022/12/27 13:47:51;;;;;;;;;;;;;;;25.85;48.03;97603.42;592174;238;62740;-74
2022/12/27 13:50:33;;;;;;;;;;;;;;;25.85;47.36;97598.05;591725;238;67064;-71
2022/12/27 13:53:05;;;;;;;;;;;;;;;25.86;47.26;97599.66;591945;238;66791;-76
2022/12/27 13:55:34;;;;;;;;;;;;;;;25.84;48.45;97612.61;591958;238;65764;-75
2022/12/27 13:58:03;;;;;;;;;;;;;;;25.83;48.38;97621.75;592397;238;65745;-73
2022/12/27 14:00:35;;;;;;;;;;;;;;;25.82;48.89;97625.52;591808;238;64800;-80
2022/12/27 14:03:16;;;;;;;;;;;;;;;25.82;47.20;97630.90;592073;238;64845;-73
2022/12/27 14:06:02;;;;;;;;;;;;;;;25.83;43.16;97634.39;591474;238;65241;-72
2022/12/27 14:08:47;;;;;;;;;;;;;;;25.85;47.36;97641.13;591379;238;64969;-78
2022/12/27 14:11:31;;;;;;;;;;;;;;;25.85;48.72;97641.13;592593;238;65229;-73
2022/12/27 14:14:00;;;;;;;;;;;;;;;25.85;49.37;97643.81;592424;238;64897;-69
2022/12/27 14:16:29;;;;;;;;;;;;;;;25.85;50.19;97633.05;592185;238;66782;-69
2022/12/27 14:19:07;;;;;;;;;;;;;;;25.84;50.21;97639.53;592134;238;65344;-69
2022/12/27 14:21:51;;;;;;;;;;;;;;;25.87;49.67;97635.46;592327;238;67100;-71
2022/12/27 14:24:35;;;;;;;;;;;;;;;25.87;48.20;97643.54;592233;238;66824;-70
2022/12/27 14:27:21;;;;;;;;;;;;;;;25.88;46.69;97635.16;591834;238;62883;-70
2022/12/27 14:29:50;;;;;;;;;;;;;;;25.89;49.15;97635.95;591665;238;64868;-71
2022/12/27 14:32:19;;;;;;;;;;;;;;;25.89;48.80;97642.16;592630;238;64735;-72
2022/12/27 14:34:48;;;;;;;;;;;;;;;25.89;49.90;97642.16;592434;238;63168;-69
2022/12/27 14:37:20;;;;;;;;;;;;;;;25.89;47.90;97639.47;592358;238;67142;-71
2022/12/27 14:40:02;;;;;;;;;;;;;;;25.89;49.71;97642.16;591936;238;64793;-71
2022/12/27 14:42:32;;;;;;;;;;;;;;;25.89;49.65;97641.34;586780;238;46443;-70
2022/12/27 14:45:02;;;;;;;;;;;;;;;25.89;48.53;97649.42;591823;238;67092;-75
2022/12/27 14:47:47;;;;;;;;;;;;;;;25.90;49.15;97659.12;590765;238;66709;-70